»·PEaware :: N115AB KBFL-KMHV

N115AB :: KBFL-KMHV

FLIGHT INFORMATION

Flight Status: Arrived
Operator: Privately registered:
United States
More flights under this callsign
Pilot: Anonymous 26321 (26321)
Aircraft: CESSNA 172 SKYHAWK
(C172)
More flights by this aircraft type
Origin: KBFL Meadows
United States
Destination: KMHV Mojave
United States
More flights between these airports :: More routes between these airports
Route: +
File this flight plan on PilotEdge
Remarks:
Altitude:
(Current/Filed)
0ft
Speed:
(Current/Filed)
0kts
Departed: 09-Oct-19 07:24 AM
Arrived: 09-Oct-19 08:13 AM
Distance/Time
Traveled:
49nm/0:49
Distance/Time
To Go:
Arrived

Flight Plot

Page will automatically refresh every two minutes.


Map Options




Map Legend


Flown Route
Filed Route
Departure Airport
Arrival Airport
Navaid (VOR, NDB)
Fix

Horizontal Profiles

Position Reports

Time Latitude Longitude Heading Altitude Ground
Speed
09-Oct-19 07:16 35.428825 -119.046747 225 498ft 0kts
09-Oct-19 07:17 35.428825 -119.046747 225 498ft 0kts
09-Oct-19 07:18 35.428235 -119.047137 154 498ft 12kts
09-Oct-19 07:19 35.425765 -119.044696 218 498ft 7kts
09-Oct-19 07:20 35.425747 -119.044716 221 498ft 0kts
09-Oct-19 07:21 35.425747 -119.044716 221 498ft 0kts
09-Oct-19 07:22 35.425731 -119.046384 312 498ft 17kts
09-Oct-19 07:23 35.435755 -119.058794 313 1042ft 70kts
09-Oct-19 07:24 35.453955 -119.058323 41 1803ft 78kts
09-Oct-19 07:25 35.451485 -119.035202 120 2544ft 81kts
09-Oct-19 07:26 35.440292 -119.012015 114 3186ft 86kts
09-Oct-19 07:27 35.432281 -118.986239 106 3838ft 85kts
09-Oct-19 07:28 35.424591 -118.960234 108 4431ft 86kts
09-Oct-19 07:29 35.417442 -118.933320 108 4984ft 87kts
09-Oct-19 07:30 35.409263 -118.906522 107 5532ft 85kts
09-Oct-19 07:31 35.400364 -118.881994 114 6056ft 82kts
09-Oct-19 07:32 35.390056 -118.859095 122 6526ft 82kts
09-Oct-19 07:33 35.378349 -118.836699 118 6949ft 83kts
09-Oct-19 07:34 35.372592 -118.823352 118 7216ft 82kts
09-Oct-19 07:35 35.360611 -118.799337 116 7493ft 86kts
09-Oct-19 07:36 35.348365 -118.771612 117 7565ft 105kts
09-Oct-19 07:37 35.333966 -118.738935 117 7533ft 115kts
09-Oct-19 07:38 35.319538 -118.705352 121 7532ft 116kts
09-Oct-19 07:39 35.302976 -118.672649 124 7534ft 116kts
09-Oct-19 07:40 35.284804 -118.641129 120 7538ft 116kts
09-Oct-19 07:41 35.266816 -118.609262 122 7542ft 116kts
09-Oct-19 07:42 35.251057 -118.576209 117 7549ft 116kts
09-Oct-19 07:43 35.237857 -118.539952 119 7563ft 115kts
09-Oct-19 07:44 35.221866 -118.505688 118 7564ft 116kts
09-Oct-19 07:45 35.208013 -118.470579 113 7565ft 116kts
09-Oct-19 07:46 35.194875 -118.435230 115 7559ft 117kts
09-Oct-19 07:47 35.179861 -118.399919 118 7543ft 117kts
09-Oct-19 07:48 35.163430 -118.365957 120 7554ft 117kts
09-Oct-19 07:49 35.146668 -118.332247 121 7467ft 119kts
09-Oct-19 07:50 35.128440 -118.300619 121 6825ft 121kts
09-Oct-19 07:51 35.112356 -118.265408 116 5977ft 122kts
09-Oct-19 07:52 35.096545 -118.232793 121 4781ft 107kts
09-Oct-19 07:53 35.078382 -118.210254 154 4303ft 75kts
09-Oct-19 07:54 35.055564 -118.203461 164 4188ft 105kts
09-Oct-19 07:55 35.032767 -118.185248 153 4648ft 103kts
09-Oct-19 07:56 35.008449 -118.168218 144 5053ft 104kts
09-Oct-19 07:57 34.985207 -118.148537 129 5359ft 104kts
09-Oct-19 07:58 34.992227 -118.125353 342 5159ft 95kts
09-Oct-19 07:59 35.006884 -118.145258 308 5271ft 83kts
09-Oct-19 08:00 35.020764 -118.167242 319 5432ft 81kts
09-Oct-19 08:01 35.041401 -118.181549 334 5431ft 97kts
09-Oct-19 08:02 35.068265 -118.183451 7 5268ft 104kts
09-Oct-19 08:03 35.093881 -118.168389 55 5023ft 109kts
09-Oct-19 08:04 35.111514 -118.138498 72 4717ft 110kts
09-Oct-19 08:05 35.112956 -118.107803 126 4868ft 100kts
09-Oct-19 08:06 35.094792 -118.083064 140 5187ft 99kts
09-Oct-19 08:07 35.073073 -118.057411 138 5452ft 106kts
09-Oct-19 08:08 35.051385 -118.058227 249 5505ft 122kts
09-Oct-19 08:09 35.035669 -118.086102 267 5184ft 106kts
09-Oct-19 08:10 35.048106 -118.111007 333 4226ft 76kts
09-Oct-19 08:11 35.059348 -118.129771 270 3387ft 64kts
09-Oct-19 08:12 35.059165 -118.148828 265 2768ft 30kts
09-Oct-19 08:13 35.058747 -118.157731 202 2768ft 10kts
09-Oct-19 08:14 35.058429 -118.157776 177 2768ft 0kts
09-Oct-19 08:15 35.056949 -118.160164 261 2768ft 0kts
09-Oct-19 08:16 35.056949 -118.160164 261 2768ft 0kts
09-Oct-19 08:17 35.056949 -118.160164 261 2768ft 0kts
09-Oct-19 08:18 35.056949 -118.160164 261 2768ft 0kts
09-Oct-19 08:19 35.056949 -118.160164 261 2768ft 0kts
09-Oct-19 08:20 35.056949 -118.160164 261 2768ft 0kts
09-Oct-19 08:21 35.056949 -118.160164 261 2768ft 0kts
09-Oct-19 08:22 35.056949 -118.160164 261 2768ft 0kts
09-Oct-19 08:23 35.056949 -118.160164 261 2768ft 0kts
09-Oct-19 08:24 35.056949 -118.160164 261 2768ft 0kts
09-Oct-19 08:25 35.056949 -118.160164 261 2768ft 0kts
09-Oct-19 08:26 35.056949 -118.160164 261 2768ft 0kts

Navigation Log

Ident Type
Flight plan parsing failed, navigation log unavailable